sensor_id;sensor_type;location;lat;lon;timestamp;P1;durP1;ratioP1;P2;durP2;ratioP2
47896;SDS011;39629;51.400;5.494;2022-10-17T00:01:51;5.30;;;3.20;;
47896;SDS011;39629;51.400;5.494;2022-10-17T00:06:52;5.20;;;3.70;;
47896;SDS011;39629;51.400;5.494;2022-10-17T00:11:54;6.57;;;3.33;;
47896;SDS011;39629;51.400;5.494;2022-10-17T00:16:57;9.10;;;4.18;;
47896;SDS011;39629;51.400;5.494;2022-10-17T00:21:59;7.63;;;4.95;;
47896;SDS011;39629;51.400;5.494;2022-10-17T00:27:00;8.07;;;4.70;;
47896;SDS011;39629;51.400;5.494;2022-10-17T00:32:04;6.32;;;4.38;;
47896;SDS011;39629;51.400;5.494;2022-10-17T00:37:05;7.55;;;4.93;;
47896;SDS011;39629;51.400;5.494;2022-10-17T00:42:09;9.23;;;5.20;;
47896;SDS011;39629;51.400;5.494;2022-10-17T00:47:14;10.23;;;5.20;;
47896;SDS011;39629;51.400;5.494;2022-10-17T00:52:20;8.05;;;5.22;;
47896;SDS011;39629;51.400;5.494;2022-10-17T00:57:25;8.70;;;4.68;;
47896;SDS011;39629;51.400;5.494;2022-10-17T01:02:31;12.85;;;5.57;;
47896;SDS011;39629;51.400;5.494;2022-10-17T01:07:32;8.77;;;5.43;;
47896;SDS011;39629;51.400;5.494;2022-10-17T01:18:02;7.70;;;4.80;;
47896;SDS011;39629;51.400;5.494;2022-10-17T01:23:20;8.20;;;4.93;;
47896;SDS011;39629;51.400;5.494;2022-10-17T01:28:46;9.48;;;5.07;;
47896;SDS011;39629;51.400;5.494;2022-10-17T01:34:12;9.40;;;5.80;;
47896;SDS011;39629;51.400;5.494;2022-10-17T01:39:19;11.73;;;5.70;;
47896;SDS011;39629;51.400;5.494;2022-10-17T01:44:31;9.38;;;5.47;;
47896;SDS011;39629;51.400;5.494;2022-10-17T01:49:40;9.05;;;5.93;;
47896;SDS011;39629;51.400;5.494;2022-10-17T01:54:47;9.23;;;4.43;;
47896;SDS011;39629;51.400;5.494;2022-10-17T01:59:53;7.43;;;4.38;;
47896;SDS011;39629;51.400;5.494;2022-10-17T02:04:58;10.18;;;5.80;;
47896;SDS011;39629;51.400;5.494;2022-10-17T02:10:02;12.48;;;5.70;;
47896;SDS011;39629;51.400;5.494;2022-10-17T02:15:18;8.18;;;5.45;;
47896;SDS011;39629;51.400;5.494;2022-10-17T02:20:37;9.15;;;5.07;;
47896;SDS011;39629;51.400;5.494;2022-10-17T02:25:44;6.97;;;4.70;;
47896;SDS011;39629;51.400;5.494;2022-10-17T02:30:52;8.25;;;4.20;;
47896;SDS011;39629;51.400;5.494;2022-10-17T02:36:01;11.82;;;5.65;;
47896;SDS011;39629;51.400;5.494;2022-10-17T02:41:08;7.70;;;5.28;;
47896;SDS011;39629;51.400;5.494;2022-10-17T02:46:14;9.93;;;6.28;;
47896;SDS011;39629;51.400;5.494;2022-10-17T02:51:23;9.63;;;5.63;;
47896;SDS011;39629;51.400;5.494;2022-10-17T02:56:31;9.45;;;5.68;;
47896;SDS011;39629;51.400;5.494;2022-10-17T03:01:39;9.20;;;5.47;;
47896;SDS011;39629;51.400;5.494;2022-10-17T03:06:42;14.07;;;5.90;;
47896;SDS011;39629;51.400;5.494;2022-10-17T03:11:46;7.57;;;4.47;;
47896;SDS011;39629;51.400;5.494;2022-10-17T03:16:49;6.40;;;4.20;;
47896;SDS011;39629;51.400;5.494;2022-10-17T03:21:53;8.25;;;5.25;;
47896;SDS011;39629;51.400;5.494;2022-10-17T03:26:55;9.63;;;5.35;;
47896;SDS011;39629;51.400;5.494;2022-10-17T03:31:57;11.73;;;5.47;;
47896;SDS011;39629;51.400;5.494;2022-10-17T03:37:00;9.55;;;5.20;;
47896;SDS011;39629;51.400;5.494;2022-10-17T03:42:04;8.05;;;4.90;;
47896;SDS011;39629;51.400;5.494;2022-10-17T03:47:06;7.80;;;4.55;;
47896;SDS011;39629;51.400;5.494;2022-10-17T03:52:11;8.93;;;5.50;;
47896;SDS011;39629;51.400;5.494;2022-10-17T03:57:12;8.30;;;5.03;;
47896;SDS011;39629;51.400;5.494;2022-10-17T04:02:14;8.20;;;4.93;;
47896;SDS011;39629;51.400;5.494;2022-10-17T04:07:19;11.30;;;4.82;;
47896;SDS011;39629;51.400;5.494;2022-10-17T04:12:22;7.10;;;4.32;;
47896;SDS011;39629;51.400;5.494;2022-10-17T04:17:24;5.93;;;4.22;;
47896;SDS011;39629;51.400;5.494;2022-10-17T04:22:27;5.82;;;4.03;;
47896;SDS011;39629;51.400;5.494;2022-10-17T04:27:30;7.20;;;4.03;;
47896;SDS011;39629;51.400;5.494;2022-10-17T04:32:34;8.70;;;4.57;;
47896;SDS011;39629;51.400;5.494;2022-10-17T04:37:46;7.75;;;4.18;;
47896;SDS011;39629;51.400;5.494;2022-10-17T04:42:53;10.57;;;5.22;;
47896;SDS011;39629;51.400;5.494;2022-10-17T04:48:00;9.40;;;4.22;;
47896;SDS011;39629;51.400;5.494;2022-10-17T04:53:03;8.50;;;4.57;;
47896;SDS011;39629;51.400;5.494;2022-10-17T04:58:05;9.83;;;5.07;;
47896;SDS011;39629;51.400;5.494;2022-10-17T05:03:07;8.15;;;4.43;;
47896;SDS011;39629;51.400;5.494;2022-10-17T05:08:10;7.50;;;4.35;;
47896;SDS011;39629;51.400;5.494;2022-10-17T05:13:13;12.00;;;4.73;;
47896;SDS011;39629;51.400;5.494;2022-10-17T05:18:15;12.02;;;5.43;;
47896;SDS011;39629;51.400;5.494;2022-10-17T05:23:18;8.88;;;4.78;;
47896;SDS011;39629;51.400;5.494;2022-10-17T05:28:20;10.20;;;4.57;;
47896;SDS011;39629;51.400;5.494;2022-10-17T05:33:22;6.75;;;4.15;;
47896;SDS011;39629;51.400;5.494;2022-10-17T05:38:26;7.43;;;4.88;;
47896;SDS011;39629;51.400;5.494;2022-10-17T05:43:29;8.60;;;4.22;;
47896;SDS011;39629;51.400;5.494;2022-10-17T05:48:32;8.98;;;4.38;;
47896;SDS011;39629;51.400;5.494;2022-10-17T05:53:36;7.70;;;4.95;;
47896;SDS011;39629;51.400;5.494;2022-10-17T05:58:43;6.90;;;3.78;;
47896;SDS011;39629;51.400;5.494;2022-10-17T06:03:57;8.43;;;5.53;;
47896;SDS011;39629;51.400;5.494;2022-10-17T06:09:00;8.02;;;4.65;;
47896;SDS011;39629;51.400;5.494;2022-10-17T06:14:06;10.05;;;4.80;;
47896;SDS011;39629;51.400;5.494;2022-10-17T06:19:10;7.97;;;4.55;;
47896;SDS011;39629;51.400;5.494;2022-10-17T06:24:13;7.30;;;4.63;;
47896;SDS011;39629;51.400;5.494;2022-10-17T06:29:16;8.40;;;4.85;;
47896;SDS011;39629;51.400;5.494;2022-10-17T06:34:24;8.93;;;4.90;;
47896;SDS011;39629;51.400;5.494;2022-10-17T06:39:27;8.57;;;4.35;;
47896;SDS011;39629;51.400;5.494;2022-10-17T06:44:39;6.03;;;3.92;;
47896;SDS011;39629;51.400;5.494;2022-10-17T06:50:05;9.15;;;4.55;;
47896;SDS011;39629;51.400;5.494;2022-10-17T06:55:18;10.02;;;4.63;;
47896;SDS011;39629;51.400;5.494;2022-10-17T07:00:26;8.43;;;4.43;;
47896;SDS011;39629;51.400;5.494;2022-10-17T07:05:30;6.13;;;4.37;;
47896;SDS011;39629;51.400;5.494;2022-10-17T07:10:33;9.70;;;4.30;;
47896;SDS011;39629;51.400;5.494;2022-10-17T07:15:39;9.00;;;4.43;;
47896;SDS011;39629;51.400;5.494;2022-10-17T07:20:42;8.65;;;4.50;;
47896;SDS011;39629;51.400;5.494;2022-10-17T07:25:46;8.70;;;4.55;;
47896;SDS011;39629;51.400;5.494;2022-10-17T07:30:49;6.60;;;3.78;;
47896;SDS011;39629;51.400;5.494;2022-10-17T07:35:51;7.53;;;4.18;;
47896;SDS011;39629;51.400;5.494;2022-10-17T07:40:54;7.82;;;4.05;;
47896;SDS011;39629;51.400;5.494;2022-10-17T07:45:56;4.60;;;3.30;;
47896;SDS011;39629;51.400;5.494;2022-10-17T07:51:00;6.80;;;3.05;;
47896;SDS011;39629;51.400;5.494;2022-10-17T07:56:04;12.27;;;4.05;;
47896;SDS011;39629;51.400;5.494;2022-10-17T08:01:07;6.15;;;3.70;;
47896;SDS011;39629;51.400;5.494;2022-10-17T08:06:13;8.52;;;3.30;;
47896;SDS011;39629;51.400;5.494;2022-10-17T08:11:16;9.18;;;4.10;;
47896;SDS011;39629;51.400;5.494;2022-10-17T08:16:18;8.25;;;3.40;;
47896;SDS011;39629;51.400;5.494;2022-10-17T08:21:19;4.53;;;3.25;;
47896;SDS011;39629;51.400;5.494;2022-10-17T08:26:22;6.18;;;3.42;;
47896;SDS011;39629;51.400;5.494;2022-10-17T08:31:24;8.25;;;3.35;;
47896;SDS011;39629;51.400;5.494;2022-10-17T08:36:26;5.78;;;2.80;;
47896;SDS011;39629;51.400;5.494;2022-10-17T08:41:43;7.18;;;3.30;;
47896;SDS011;39629;51.400;5.494;2022-10-17T08:46:54;4.68;;;3.17;;
47896;SDS011;39629;51.400;5.494;2022-10-17T08:52:01;7.53;;;3.35;;
47896;SDS011;39629;51.400;5.494;2022-10-17T08:57:09;7.70;;;3.67;;
47896;SDS011;39629;51.400;5.494;2022-10-17T09:02:24;9.43;;;3.40;;
47896;SDS011;39629;51.400;5.494;2022-10-17T09:07:38;7.13;;;3.50;;
47896;SDS011;39629;51.400;5.494;2022-10-17T09:13:02;6.07;;;2.97;;
47896;SDS011;39629;51.400;5.494;2022-10-17T09:18:16;10.18;;;3.50;;
47896;SDS011;39629;51.400;5.494;2022-10-17T09:23:24;8.70;;;3.58;;
47896;SDS011;39629;51.400;5.494;2022-10-17T09:28:31;8.73;;;3.63;;
47896;SDS011;39629;51.400;5.494;2022-10-17T09:33:36;6.85;;;3.08;;
47896;SDS011;39629;51.400;5.494;2022-10-17T09:38:42;7.00;;;3.17;;
47896;SDS011;39629;51.400;5.494;2022-10-17T09:48:49;6.78;;;3.55;;
47896;SDS011;39629;51.400;5.494;2022-10-17T09:53:54;6.15;;;3.72;;
47896;SDS011;39629;51.400;5.494;2022-10-17T09:59:01;7.25;;;4.10;;
47896;SDS011;39629;51.400;5.494;2022-10-17T10:04:09;10.05;;;4.05;;
47896;SDS011;39629;51.400;5.494;2022-10-17T10:09:19;7.63;;;3.75;;
47896;SDS011;39629;51.400;5.494;2022-10-17T10:14:27;7.10;;;4.00;;
47896;SDS011;39629;51.400;5.494;2022-10-17T10:19:33;11.02;;;4.35;;
47896;SDS011;39629;51.400;5.494;2022-10-17T10:24:37;5.63;;;3.38;;
47896;SDS011;39629;51.400;5.494;2022-10-17T10:29:40;8.63;;;3.83;;
47896;SDS011;39629;51.400;5.494;2022-10-17T10:34:45;8.25;;;4.15;;
47896;SDS011;39629;51.400;5.494;2022-10-17T10:39:50;9.75;;;4.15;;
47896;SDS011;39629;51.400;5.494;2022-10-17T10:44:57;9.05;;;4.63;;
47896;SDS011;39629;51.400;5.494;2022-10-17T10:50:16;10.07;;;4.40;;
47896;SDS011;39629;51.400;5.494;2022-10-17T10:55:23;6.50;;;4.13;;
47896;SDS011;39629;51.400;5.494;2022-10-17T11:00:30;6.57;;;4.18;;
47896;SDS011;39629;51.400;5.494;2022-10-17T11:05:36;7.10;;;4.47;;
47896;SDS011;39629;51.400;5.494;2022-10-17T11:10:43;7.93;;;4.60;;
47896;SDS011;39629;51.400;5.494;2022-10-17T11:15:58;8.90;;;4.70;;
47896;SDS011;39629;51.400;5.494;2022-10-17T11:21:05;7.53;;;4.60;;
47896;SDS011;39629;51.400;5.494;2022-10-17T11:26:18;10.02;;;4.88;;
47896;SDS011;39629;51.400;5.494;2022-10-17T11:31:27;8.13;;;4.75;;
47896;SDS011;39629;51.400;5.494;2022-10-17T11:36:33;7.15;;;4.68;;
47896;SDS011;39629;51.400;5.494;2022-10-17T11:41:38;7.35;;;4.70;;
47896;SDS011;39629;51.400;5.494;2022-10-17T11:46:44;7.28;;;4.60;;
47896;SDS011;39629;51.400;5.494;2022-10-17T11:51:51;9.02;;;4.70;;
47896;SDS011;39629;51.400;5.494;2022-10-17T11:57:05;7.68;;;5.05;;
47896;SDS011;39629;51.400;5.494;2022-10-17T12:02:27;9.23;;;4.95;;
47896;SDS011;39629;51.400;5.494;2022-10-17T12:07:41;7.93;;;4.82;;
47896;SDS011;39629;51.400;5.494;2022-10-17T12:12:46;11.25;;;4.75;;
47896;SDS011;39629;51.400;5.494;2022-10-17T12:17:54;10.48;;;5.25;;
47896;SDS011;39629;51.400;5.494;2022-10-17T12:22:59;8.10;;;4.53;;
47896;SDS011;39629;51.400;5.494;2022-10-17T12:28:14;10.57;;;5.25;;
47896;SDS011;39629;51.400;5.494;2022-10-17T12:33:19;7.88;;;4.63;;
47896;SDS011;39629;51.400;5.494;2022-10-17T12:38:23;7.97;;;5.22;;
47896;SDS011;39629;51.400;5.494;2022-10-17T12:54:19;17.13;;;5.50;;
47896;SDS011;39629;51.400;5.494;2022-10-17T12:59:23;10.55;;;5.13;;
47896;SDS011;39629;51.400;5.494;2022-10-17T13:04:29;9.88;;;5.38;;
47896;SDS011;39629;51.400;5.494;2022-10-17T13:09:32;8.43;;;5.15;;
47896;SDS011;39629;51.400;5.494;2022-10-17T13:14:39;10.70;;;5.03;;
47896;SDS011;39629;51.400;5.494;2022-10-17T13:19:44;6.68;;;4.05;;
47896;SDS011;39629;51.400;5.494;2022-10-17T13:24:47;11.10;;;4.90;;
47896;SDS011;39629;51.400;5.494;2022-10-17T13:29:50;7.32;;;4.80;;
47896;SDS011;39629;51.400;5.494;2022-10-17T13:35:05;7.80;;;4.85;;
47896;SDS011;39629;51.400;5.494;2022-10-17T13:40:14;7.30;;;4.13;;
47896;SDS011;39629;51.400;5.494;2022-10-17T13:45:18;10.30;;;4.45;;
47896;SDS011;39629;51.400;5.494;2022-10-17T13:50:32;7.82;;;4.35;;
47896;SDS011;39629;51.400;5.494;2022-10-17T13:55:36;9.55;;;4.68;;
47896;SDS011;39629;51.400;5.494;2022-10-17T14:00:37;9.30;;;4.80;;
47896;SDS011;39629;51.400;5.494;2022-10-17T14:11:13;8.00;;;5.07;;
47896;SDS011;39629;51.400;5.494;2022-10-17T14:16:18;9.57;;;4.85;;
47896;SDS011;39629;51.400;5.494;2022-10-17T14:21:23;9.35;;;4.82;;
47896;SDS011;39629;51.400;5.494;2022-10-17T14:26:27;7.32;;;4.35;;
47896;SDS011;39629;51.400;5.494;2022-10-17T14:31:29;7.07;;;3.97;;
47896;SDS011;39629;51.400;5.494;2022-10-17T14:36:35;11.38;;;4.20;;
47896;SDS011;39629;51.400;5.494;2022-10-17T14:41:40;7.75;;;4.40;;
47896;SDS011;39629;51.400;5.494;2022-10-17T14:46:44;9.50;;;5.85;;
47896;SDS011;39629;51.400;5.494;2022-10-17T14:57:42;9.93;;;4.88;;
47896;SDS011;39629;51.400;5.494;2022-10-17T15:02:45;7.88;;;4.65;;
47896;SDS011;39629;51.400;5.494;2022-10-17T15:07:48;13.25;;;5.30;;
47896;SDS011;39629;51.400;5.494;2022-10-17T15:12:51;7.35;;;4.40;;
47896;SDS011;39629;51.400;5.494;2022-10-17T15:17:53;6.60;;;3.58;;
47896;SDS011;39629;51.400;5.494;2022-10-17T15:22:55;9.88;;;4.38;;
47896;SDS011;39629;51.400;5.494;2022-10-17T15:27:59;11.13;;;4.32;;
47896;SDS011;39629;51.400;5.494;2022-10-17T15:33:00;9.18;;;4.43;;
47896;SDS011;39629;51.400;5.494;2022-10-17T15:38:02;7.65;;;4.90;;
47896;SDS011;39629;51.400;5.494;2022-10-17T15:43:08;6.60;;;4.15;;
47896;SDS011;39629;51.400;5.494;2022-10-17T15:48:14;9.87;;;4.77;;
47896;SDS011;39629;51.400;5.494;2022-10-17T15:53:19;8.55;;;5.43;;
47896;SDS011;39629;51.400;5.494;2022-10-17T15:58:22;9.60;;;5.28;;
47896;SDS011;39629;51.400;5.494;2022-10-17T16:03:27;8.27;;;4.60;;
47896;SDS011;39629;51.400;5.494;2022-10-17T16:08:29;10.38;;;4.60;;
47896;SDS011;39629;51.400;5.494;2022-10-17T16:13:32;6.65;;;4.20;;
47896;SDS011;39629;51.400;5.494;2022-10-17T16:18:34;9.30;;;4.35;;
47896;SDS011;39629;51.400;5.494;2022-10-17T16:23:35;9.75;;;4.35;;
47896;SDS011;39629;51.400;5.494;2022-10-17T16:28:38;8.18;;;3.72;;
47896;SDS011;39629;51.400;5.494;2022-10-17T16:33:40;8.63;;;4.63;;
47896;SDS011;39629;51.400;5.494;2022-10-17T16:38:42;10.23;;;4.75;;
47896;SDS011;39629;51.400;5.494;2022-10-17T16:43:45;12.07;;;4.72;;
47896;SDS011;39629;51.400;5.494;2022-10-17T16:48:47;10.17;;;5.00;;
47896;SDS011;39629;51.400;5.494;2022-10-17T16:53:50;9.30;;;5.53;;
47896;SDS011;39629;51.400;5.494;2022-10-17T17:03:56;11.48;;;4.72;;
47896;SDS011;39629;51.400;5.494;2022-10-17T17:08:58;13.52;;;5.60;;
47896;SDS011;39629;51.400;5.494;2022-10-17T17:14:02;10.60;;;5.35;;
47896;SDS011;39629;51.400;5.494;2022-10-17T17:19:05;11.18;;;4.90;;
47896;SDS011;39629;51.400;5.494;2022-10-17T17:24:10;7.47;;;5.20;;
47896;SDS011;39629;51.400;5.494;2022-10-17T17:29:13;12.07;;;5.55;;
47896;SDS011;39629;51.400;5.494;2022-10-17T17:34:15;8.13;;;5.10;;
47896;SDS011;39629;51.400;5.494;2022-10-17T17:39:17;12.77;;;5.65;;
47896;SDS011;39629;51.400;5.494;2022-10-17T17:44:20;7.40;;;4.72;;
47896;SDS011;39629;51.400;5.494;2022-10-17T17:49:21;6.97;;;4.38;;
47896;SDS011;39629;51.400;5.494;2022-10-17T17:54:23;10.25;;;6.00;;
47896;SDS011;39629;51.400;5.494;2022-10-17T17:59:26;7.90;;;4.93;;
47896;SDS011;39629;51.400;5.494;2022-10-17T18:04:27;8.13;;;5.30;;
47896;SDS011;39629;51.400;5.494;2022-10-17T18:09:29;7.68;;;4.85;;
47896;SDS011;39629;51.400;5.494;2022-10-17T18:14:32;8.48;;;5.93;;
47896;SDS011;39629;51.400;5.494;2022-10-17T18:19:33;8.43;;;5.95;;
47896;SDS011;39629;51.400;5.494;2022-10-17T18:24:35;9.63;;;6.57;;
47896;SDS011;39629;51.400;5.494;2022-10-17T18:29:38;9.15;;;6.47;;
47896;SDS011;39629;51.400;5.494;2022-10-17T18:34:40;9.75;;;5.95;;
47896;SDS011;39629;51.400;5.494;2022-10-17T18:39:41;9.57;;;5.13;;
47896;SDS011;39629;51.400;5.494;2022-10-17T18:44:45;11.48;;;6.07;;
47896;SDS011;39629;51.400;5.494;2022-10-17T18:49:47;15.13;;;6.87;;
47896;SDS011;39629;51.400;5.494;2022-10-17T18:54:49;10.25;;;5.85;;
47896;SDS011;39629;51.400;5.494;2022-10-17T18:59:52;14.73;;;6.97;;
47896;SDS011;39629;51.400;5.494;2022-10-17T19:04:53;10.05;;;6.75;;
47896;SDS011;39629;51.400;5.494;2022-10-17T19:09:55;9.68;;;5.75;;
47896;SDS011;39629;51.400;5.494;2022-10-17T19:14:58;8.07;;;4.47;;
47896;SDS011;39629;51.400;5.494;2022-10-17T19:19:59;8.00;;;4.90;;
47896;SDS011;39629;51.400;5.494;2022-10-17T19:25:01;11.30;;;4.68;;
47896;SDS011;39629;51.400;5.494;2022-10-17T19:30:04;10.90;;;5.22;;
47896;SDS011;39629;51.400;5.494;2022-10-17T19:40:11;7.50;;;4.10;;
47896;SDS011;39629;51.400;5.494;2022-10-17T19:45:15;6.87;;;4.23;;
47896;SDS011;39629;51.400;5.494;2022-10-17T19:50:16;9.35;;;4.45;;
47896;SDS011;39629;51.400;5.494;2022-10-17T19:55:18;10.57;;;4.85;;
47896;SDS011;39629;51.400;5.494;2022-10-17T20:00:21;8.95;;;4.35;;
47896;SDS011;39629;51.400;5.494;2022-10-17T20:05:23;7.90;;;5.50;;
47896;SDS011;39629;51.400;5.494;2022-10-17T20:10:24;6.07;;;3.42;;
47896;SDS011;39629;51.400;5.494;2022-10-17T20:15:27;6.57;;;4.05;;
47896;SDS011;39629;51.400;5.494;2022-10-17T20:20:29;6.40;;;3.97;;
47896;SDS011;39629;51.400;5.494;2022-10-17T20:25:31;5.78;;;3.80;;
47896;SDS011;39629;51.400;5.494;2022-10-17T20:30:35;8.52;;;4.00;;
47896;SDS011;39629;51.400;5.494;2022-10-17T20:35:39;7.20;;;3.40;;
47896;SDS011;39629;51.400;5.494;2022-10-17T20:45:43;9.75;;;3.45;;
47896;SDS011;39629;51.400;5.494;2022-10-17T20:50:45;5.72;;;2.67;;
47896;SDS011;39629;51.400;5.494;2022-10-17T20:55:47;5.88;;;3.28;;
47896;SDS011;39629;51.400;5.494;2022-10-17T21:00:50;5.07;;;2.45;;
47896;SDS011;39629;51.400;5.494;2022-10-17T21:05:51;4.13;;;2.40;;
47896;SDS011;39629;51.400;5.494;2022-10-17T21:10:53;6.60;;;2.70;;
47896;SDS011;39629;51.400;5.494;2022-10-17T21:15:59;4.43;;;2.38;;
47896;SDS011;39629;51.400;5.494;2022-10-17T21:21:05;4.20;;;2.28;;
47896;SDS011;39629;51.400;5.494;2022-10-17T21:26:10;9.25;;;2.65;;
47896;SDS011;39629;51.400;5.494;2022-10-17T21:31:14;6.78;;;2.67;;
47896;SDS011;39629;51.400;5.494;2022-10-17T21:36:18;9.35;;;2.67;;
47896;SDS011;39629;51.400;5.494;2022-10-17T21:41:21;4.00;;;1.88;;
47896;SDS011;39629;51.400;5.494;2022-10-17T21:46:26;7.28;;;2.53;;
47896;SDS011;39629;51.400;5.494;2022-10-17T21:51:29;10.35;;;2.63;;
47896;SDS011;39629;51.400;5.494;2022-10-17T21:56:30;7.25;;;2.47;;
47896;SDS011;39629;51.400;5.494;2022-10-17T22:01:36;3.03;;;2.17;;
47896;SDS011;39629;51.400;5.494;2022-10-17T22:06:39;5.88;;;2.30;;
47896;SDS011;39629;51.400;5.494;2022-10-17T22:11:43;4.68;;;2.17;;
47896;SDS011;39629;51.400;5.494;2022-10-17T22:21:49;9.00;;;2.22;;
47896;SDS011;39629;51.400;5.494;2022-10-17T22:26:51;4.95;;;2.33;;
47896;SDS011;39629;51.400;5.494;2022-10-17T22:31:54;5.78;;;2.05;;
47896;SDS011;39629;51.400;5.494;2022-10-17T22:36:55;6.22;;;1.95;;
47896;SDS011;39629;51.400;5.494;2022-10-17T22:41:57;4.22;;;2.20;;
47896;SDS011;39629;51.400;5.494;2022-10-17T22:47:00;5.68;;;1.80;;
47896;SDS011;39629;51.400;5.494;2022-10-17T22:52:01;6.93;;;2.00;;
47896;SDS011;39629;51.400;5.494;2022-10-17T22:57:03;3.58;;;2.17;;
47896;SDS011;39629;51.400;5.494;2022-10-17T23:02:06;6.60;;;2.03;;
47896;SDS011;39629;51.400;5.494;2022-10-17T23:07:08;5.57;;;1.90;;
47896;SDS011;39629;51.400;5.494;2022-10-17T23:12:13;3.17;;;1.52;;
47896;SDS011;39629;51.400;5.494;2022-10-17T23:17:16;1.33;;;1.10;;
47896;SDS011;39629;51.400;5.494;2022-10-17T23:22:18;2.95;;;1.25;;
47896;SDS011;39629;51.400;5.494;2022-10-17T23:27:19;1.88;;;1.50;;
47896;SDS011;39629;51.400;5.494;2022-10-17T23:32:22;5.55;;;1.90;;
47896;SDS011;39629;51.400;5.494;2022-10-17T23:37:24;3.42;;;1.65;;
47896;SDS011;39629;51.400;5.494;2022-10-17T23:42:25;2.95;;;1.30;;
47896;SDS011;39629;51.400;5.494;2022-10-17T23:47:29;2.97;;;1.92;;
47896;SDS011;39629;51.400;5.494;2022-10-17T23:52:30;2.55;;;1.90;;
47896;SDS011;39629;51.400;5.494;2022-10-17T23:57:32;5.53;;;1.65;;
